Time;durP1;ratioP1;P1;durP2;ratioP2;P2;SDS_P1;SDS_P2;PMS_P1;PMS_P2;Temp;Humidity;BMP_temperature;BMP_pressure;BME280_temperature;BME280_humidity;BME280_pressure;Samples;Min_cycle;Max_cycle;Signal;HPM_P1;HPM_P2
2021/10/03 00:05:19;;;;;;;4.57;4.37;;;16.10;99.90;;;;;;4918575;29;20840;-69
2021/10/03 00:07:49;;;;;;;5.80;5.30;;;16.10;99.90;;;;;;4936420;29;20478;-69
2021/10/03 00:10:17;;;;;;;6.40;5.20;;;16.00;99.90;;;;;;4928870;29;20561;-69
2021/10/03 00:12:44;;;;;;;5.47;5.03;;;16.00;99.90;;;;;;4919318;29;20465;-69
2021/10/03 00:15:11;;;;;;;5.87;5.47;;;16.10;99.90;;;;;;4918531;29;20978;-70
2021/10/03 00:17:38;;;;;;;6.70;5.27;;;16.10;99.90;;;;;;4919344;29;20959;-67
2021/10/03 00:20:07;;;;;;;5.53;5.13;;;16.10;99.90;;;;;;4919019;29;21023;-70
2021/10/03 00:22:38;;;;;;;10.13;6.50;;;16.10;99.90;;;;;;4907788;29;20519;-69
2021/10/03 00:25:05;;;;;;;6.17;5.77;;;16.20;99.90;;;;;;4907784;29;20514;-69
2021/10/03 00:27:32;;;;;;;7.10;4.90;;;16.20;99.90;;;;;;4916604;29;20466;-69
2021/10/03 00:29:58;;;;;;;6.57;6.00;;;16.30;99.90;;;;;;4907931;29;20550;-70
2021/10/03 00:32:25;;;;;;;6.30;5.80;;;16.30;99.90;;;;;;4915644;29;20466;-69
2021/10/03 00:34:52;;;;;;;5.07;4.77;;;16.40;99.90;;;;;;4920744;29;20483;-69
2021/10/03 00:37:19;;;;;;;5.47;5.00;;;16.40;99.90;;;;;;4917398;29;20531;-68
2021/10/03 00:39:47;;;;;;;5.80;5.33;;;16.50;99.90;;;;;;4919687;29;20530;-69
2021/10/03 00:42:14;;;;;;;5.50;5.10;;;16.50;99.90;;;;;;4917970;29;20529;-70
2021/10/03 00:44:41;;;;;;;5.43;5.13;;;16.70;99.90;;;;;;4926273;29;20479;-70
2021/10/03 00:47:08;;;;;;;5.97;5.53;;;16.70;99.90;;;;;;4916990;29;21064;-69
2021/10/03 00:49:36;;;;;;;5.00;4.60;;;16.80;99.90;;;;;;4915335;29;20513;-69
2021/10/03 00:52:05;;;;;;;6.07;5.10;;;16.80;99.90;;;;;;4915672;29;20934;-71
2021/10/03 00:54:32;;;;;;;5.67;5.10;;;16.80;99.90;;;;;;4915737;29;20901;-69
2021/10/03 00:57:00;;;;;;;5.93;4.67;;;16.90;99.90;;;;;;4915794;29;20496;-71
2021/10/03 00:59:28;;;;;;;6.40;4.63;;;16.90;99.90;;;;;;4915939;29;20474;-72
2021/10/03 01:01:54;;;;;;;6.07;5.50;;;16.90;99.90;;;;;;4915872;29;20474;-72
2021/10/03 01:04:21;;;;;;;5.40;5.10;;;16.90;99.90;;;;;;4914533;29;20550;-72
2021/10/03 01:06:48;;;;;;;5.30;5.00;;;17.00;99.90;;;;;;4915499;29;20526;-69
2021/10/03 01:09:14;;;;;;;5.30;5.00;;;17.00;99.90;;;;;;4915664;29;20474;-69
2021/10/03 01:11:41;;;;;;;5.20;4.83;;;17.10;99.90;;;;;;4915631;29;20471;-69
2021/10/03 01:14:09;;;;;;;5.20;4.90;;;17.10;99.90;;;;;;4915186;29;20494;-69
2021/10/03 01:16:36;;;;;;;5.33;4.90;;;17.10;99.90;;;;;;4915685;29;20463;-69
2021/10/03 01:19:04;;;;;;;5.33;4.93;;;17.20;99.90;;;;;;4914700;29;20951;-69
2021/10/03 01:21:32;;;;;;;4.83;4.63;;;17.30;99.90;;;;;;4919023;29;20466;-68
2021/10/03 01:23:59;;;;;;;5.43;5.10;;;17.30;99.90;;;;;;4918601;29;20508;-69
2021/10/03 01:26:27;;;;;;;5.33;4.93;;;17.30;99.90;;;;;;4918864;29;20538;-69
2021/10/03 01:28:54;;;;;;;6.27;5.67;;;17.40;99.90;;;;;;4918971;29;20537;-69
2021/10/03 01:31:21;;;;;;;5.23;4.83;;;17.40;99.90;;;;;;4919037;29;20482;-69
2021/10/03 01:33:48;;;;;;;5.67;5.27;;;17.40;99.90;;;;;;4917686;29;20489;-68
2021/10/03 01:36:15;;;;;;;6.43;5.93;;;17.40;99.90;;;;;;4918876;29;20466;-69
2021/10/03 01:38:43;;;;;;;5.80;4.97;;;17.40;99.90;;;;;;4918504;29;20885;-69
2021/10/03 01:41:09;;;;;;;6.07;5.47;;;17.40;99.90;;;;;;4918825;29;20466;-68
2021/10/03 01:43:36;;;;;;;5.97;5.47;;;17.40;99.90;;;;;;4918452;29;20494;-68
2021/10/03 01:46:04;;;;;;;5.50;5.13;;;17.40;99.90;;;;;;4918888;29;20490;-69
2021/10/03 01:48:31;;;;;;;5.87;5.20;;;17.40;99.90;;;;;;4917773;29;20557;-69
2021/10/03 01:51:00;;;;;;;5.60;5.27;;;17.40;99.90;;;;;;4918691;29;20470;-69
2021/10/03 01:53:29;;;;;;;6.03;4.90;;;17.60;99.90;;;;;;4917962;29;20490;-69
2021/10/03 01:55:58;;;;;;;5.33;4.90;;;17.60;99.90;;;;;;4918406;29;20496;-69
2021/10/03 01:58:27;;;;;;;4.30;4.10;;;17.70;99.90;;;;;;4918126;29;21026;-69
2021/10/03 02:00:58;;;;;;;4.87;4.60;;;17.70;99.90;;;;;;4918225;29;20518;-69
2021/10/03 02:03:25;;;;;;;5.53;5.13;;;17.80;99.90;;;;;;4916926;29;20983;-69
2021/10/03 02:05:52;;;;;;;5.17;4.77;;;18.00;99.90;;;;;;4917780;29;20502;-68
2021/10/03 02:08:19;;;;;;;5.00;4.60;;;18.00;99.90;;;;;;4918188;29;20518;-68
2021/10/03 02:10:48;;;;;;;4.30;4.10;;;18.10;99.90;;;;;;4918724;29;20523;-68
2021/10/03 02:13:18;;;;;;;4.70;4.40;;;18.20;99.90;;;;;;4918211;29;20490;-69
2021/10/03 02:15:46;;;;;;;3.83;3.70;;;18.20;99.90;;;;;;4918262;29;20466;-68
2021/10/03 02:18:14;;;;;;;4.90;4.60;;;18.20;99.90;;;;;;4917088;29;20474;-69
2021/10/03 02:20:42;;;;;;;5.03;4.73;;;18.20;99.90;;;;;;4918210;29;20459;-69
2021/10/03 02:23:11;;;;;;;4.60;4.40;;;18.20;99.90;;;;;;4917386;29;20542;-69
2021/10/03 02:25:43;;;;;;;5.10;4.80;;;18.30;99.90;;;;;;4917743;29;20470;-68
2021/10/03 02:28:10;;;;;;;4.57;4.23;;;18.20;99.90;;;;;;4917494;29;20947;-69
2021/10/03 02:30:39;;;;;;;4.67;4.37;;;18.30;99.90;;;;;;4917680;29;20783;-69
2021/10/03 02:33:05;;;;;;;4.70;4.40;;;18.30;99.90;;;;;;4917194;29;20494;-68
2021/10/03 02:35:32;;;;;;;5.77;4.03;;;18.40;99.90;;;;;;4917300;29;20466;-68
2021/10/03 02:37:59;;;;;;;4.70;4.50;;;18.40;99.90;;;;;;4917711;29;20466;-69
2021/10/03 02:40:25;;;;;;;4.07;3.77;;;18.50;99.90;;;;;;4917370;29;20545;-68
2021/10/03 02:42:52;;;;;;;5.00;4.60;;;18.60;99.90;;;;;;4917299;29;20506;-69
2021/10/03 02:45:19;;;;;;;4.37;4.17;;;18.60;99.90;;;;;;4917151;29;20498;-68
2021/10/03 02:47:47;;;;;;;4.30;4.00;;;18.60;99.90;;;;;;4916858;29;20502;-68
2021/10/03 02:50:13;;;;;;;4.00;3.90;;;18.60;99.90;;;;;;4917176;29;20539;-68
2021/10/03 02:52:41;;;;;;;4.70;4.40;;;18.60;99.90;;;;;;4916905;29;20530;-69
2021/10/03 02:55:09;;;;;;;4.73;4.50;;;18.50;99.90;;;;;;4917155;29;20979;-68
2021/10/03 02:57:36;;;;;;;7.10;4.13;;;18.50;99.90;;;;;;4917272;29;20466;-69
2021/10/03 03:00:03;;;;;;;4.83;4.53;;;18.50;99.90;;;;;;4917000;29;20518;-68
2021/10/03 03:02:30;;;;;;;4.37;3.90;;;18.40;99.90;;;;;;4917111;29;20534;-68
2021/10/03 03:04:58;;;;;;;4.60;4.30;;;18.40;99.90;;;;;;4916005;29;20502;-69
2021/10/03 03:07:24;;;;;;;4.50;4.20;;;18.40;99.90;;;;;;4917074;29;20506;-69
2021/10/03 03:09:51;;;;;;;4.47;4.00;;;18.40;99.90;;;;;;4916635;29;20485;-69
2021/10/03 03:12:18;;;;;;;4.70;4.40;;;18.40;99.90;;;;;;4916744;29;20466;-69
2021/10/03 03:14:44;;;;;;;4.10;4.00;;;18.40;99.90;;;;;;4916591;29;20482;-69
2021/10/03 03:17:16;;;;;;;4.57;4.27;;;18.30;99.90;;;;;;4917040;29;20494;-68
2021/10/03 03:19:43;;;;;;;3.87;3.67;;;18.30;99.90;;;;;;4915876;29;20524;-69
2021/10/03 03:22:13;;;;;;;5.13;4.60;;;18.30;99.90;;;;;;4916705;29;20466;-69
2021/10/03 03:24:40;;;;;;;4.43;4.10;;;18.30;99.90;;;;;;4916445;29;20486;-69
2021/10/03 03:27:07;;;;;;;4.47;4.20;;;18.30;99.90;;;;;;4916254;29;20490;-69
2021/10/03 03:29:34;;;;;;;4.13;3.93;;;18.20;99.90;;;;;;4916596;29;20466;-69
2021/10/03 03:32:00;;;;;;;3.80;3.67;;;18.20;99.90;;;;;;4916718;29;20518;-69
2021/10/03 03:34:28;;;;;;;4.67;4.37;;;18.10;99.90;;;;;;4915335;29;20653;-68
2021/10/03 03:36:55;;;;;;;4.60;4.40;;;18.10;99.90;;;;;;4916421;29;20802;-70
2021/10/03 03:39:23;;;;;;;4.40;4.23;;;18.00;99.90;;;;;;4916296;29;20530;-69
2021/10/03 03:41:49;;;;;;;7.80;7.00;;;18.00;99.90;;;;;;4916183;29;20474;-69
2021/10/03 03:44:16;;;;;;;5.27;4.87;;;17.90;99.90;;;;;;4916035;29;20505;-69
2021/10/03 03:46:43;;;;;;;4.93;4.50;;;17.90;99.90;;;;;;4916396;29;20501;-69
2021/10/03 03:49:10;;;;;;;4.73;4.53;;;17.80;99.90;;;;;;4915387;29;20534;-68
2021/10/03 03:51:36;;;;;;;4.83;4.63;;;17.80;99.90;;;;;;4916652;29;20522;-69
2021/10/03 03:54:03;;;;;;;4.77;4.47;;;17.80;99.90;;;;;;4915735;29;20541;-69
2021/10/03 03:56:31;;;;;;;4.90;4.60;;;17.80;99.90;;;;;;4916519;29;20462;-69
2021/10/03 03:58:58;;;;;;;5.23;4.80;;;17.70;99.90;;;;;;4916169;29;20530;-68
2021/10/03 04:01:24;;;;;;;4.77;4.47;;;17.70;99.90;;;;;;4916246;29;20474;-68
2021/10/03 04:03:51;;;;;;;5.17;4.90;;;17.60;99.90;;;;;;4915072;29;20494;-68
2021/10/03 04:06:18;;;;;;;5.23;4.90;;;17.70;99.90;;;;;;4916150;29;20531;-69
2021/10/03 04:08:44;;;;;;;5.27;4.97;;;17.70;99.90;;;;;;4915952;29;20467;-69
2021/10/03 04:11:13;;;;;;;4.80;4.50;;;17.60;99.90;;;;;;4916408;29;20474;-68
2021/10/03 04:13:41;;;;;;;5.03;4.73;;;17.60;99.90;;;;;;4915469;29;20983;-69
2021/10/03 04:16:08;;;;;;;5.10;4.80;;;17.70;99.90;;;;;;4915910;29;20463;-69
2021/10/03 04:18:34;;;;;;;4.07;3.87;;;17.60;99.90;;;;;;4915124;29;20529;-68
2021/10/03 04:21:01;;;;;;;4.47;4.27;;;17.70;99.90;;;;;;4915679;29;20470;-69
2021/10/03 04:23:28;;;;;;;4.70;4.40;;;17.70;99.90;;;;;;4915593;29;20561;-69
2021/10/03 04:25:54;;;;;;;5.80;4.33;;;17.70;99.90;;;;;;4916096;29;20466;-68
2021/10/03 04:28:24;;;;;;;5.30;4.97;;;17.60;99.90;;;;;;4915944;29;20495;-69
2021/10/03 04:30:52;;;;;;;5.43;4.97;;;17.60;99.90;;;;;;4916173;29;20477;-69
2021/10/03 04:33:18;;;;;;;4.27;4.07;;;17.60;99.90;;;;;;4914692;29;20987;-69
2021/10/03 04:35:45;;;;;;;5.10;4.80;;;17.60;99.90;;;;;;4915937;29;20470;-69
2021/10/03 04:38:12;;;;;;;4.23;4.03;;;17.60;99.90;;;;;;4915995;29;20470;-69
2021/10/03 04:40:38;;;;;;;4.93;4.63;;;17.60;99.90;;;;;;4916072;29;20462;-68
2021/10/03 04:43:05;;;;;;;3.90;3.70;;;17.60;99.90;;;;;;4915791;29;20538;-69
2021/10/03 04:45:32;;;;;;;4.10;3.83;;;17.60;99.90;;;;;;4915789;29;20529;-68
2021/10/03 04:48:02;;;;;;;4.23;3.93;;;17.60;99.90;;;;;;4915270;29;20490;-68
2021/10/03 04:50:29;;;;;;;4.40;4.10;;;17.60;99.90;;;;;;4915572;29;20462;-68
2021/10/03 04:52:56;;;;;;;3.90;3.60;;;17.70;99.90;;;;;;4915795;29;20755;-69
2021/10/03 04:55:23;;;;;;;3.53;3.33;;;17.70;99.90;;;;;;4917733;29;20537;-68
2021/10/03 04:57:50;;;;;;;3.53;3.37;;;17.80;99.90;;;;;;4919649;29;20509;-68
2021/10/03 05:00:17;;;;;;;5.00;4.07;;;17.80;99.90;;;;;;4919469;29;20466;-68
2021/10/03 05:02:43;;;;;;;4.83;4.33;;;17.80;99.90;;;;;;4918591;29;20470;-69
2021/10/03 05:05:11;;;;;;;3.67;3.53;;;17.80;99.90;;;;;;4918740;29;20533;-67
2021/10/03 05:07:38;;;;;;;3.20;3.10;;;17.80;99.90;;;;;;4919518;29;20490;-70
2021/10/03 05:10:06;;;;;;;4.70;4.40;;;17.80;99.90;;;;;;4926903;29;20494;-71
2021/10/03 05:12:32;;;;;;;3.43;3.33;;;17.80;99.90;;;;;;4932920;29;20494;-71
2021/10/03 05:14:59;;;;;;;3.67;3.50;;;17.80;99.90;;;;;;4933312;29;20514;-71
2021/10/03 05:17:26;;;;;;;3.70;3.53;;;17.70;99.90;;;;;;4934597;29;20458;-71
2021/10/03 05:19:52;;;;;;;3.20;3.10;;;17.70;99.90;;;;;;4933986;29;20466;-70
2021/10/03 05:22:22;;;;;;;4.87;4.70;;;17.70;99.90;;;;;;4934246;29;20556;-71
2021/10/03 05:24:49;;;;;;;5.00;4.80;;;17.60;99.90;;;;;;4933285;29;20513;-71
2021/10/03 05:27:15;;;;;;;4.53;4.27;;;17.60;99.90;;;;;;4932216;29;20482;-71
2021/10/03 05:29:42;;;;;;;4.20;4.00;;;17.60;99.90;;;;;;4932228;29;20525;-71
2021/10/03 05:32:09;;;;;;;3.90;3.70;;;17.50;99.90;;;;;;4931085;29;20466;-70
2021/10/03 05:34:36;;;;;;;4.40;4.20;;;17.50;99.90;;;;;;4932212;29;20554;-70
2021/10/03 05:37:03;;;;;;;4.60;4.40;;;17.40;99.90;;;;;;4931852;29;20518;-71
2021/10/03 05:39:31;;;;;;;4.10;3.80;;;17.40;99.90;;;;;;4930255;29;20529;-71
2021/10/03 05:41:58;;;;;;;3.80;3.70;;;17.40;99.90;;;;;;4929788;29;20522;-71
2021/10/03 05:44:25;;;;;;;4.20;4.00;;;17.40;99.90;;;;;;4929471;29;21069;-71
2021/10/03 05:46:51;;;;;;;4.30;4.10;;;17.40;99.90;;;;;;4929662;29;20491;-71
2021/10/03 05:49:18;;;;;;;4.70;4.40;;;17.40;99.90;;;;;;4928592;29;20463;-71
2021/10/03 05:51:45;;;;;;;3.90;3.70;;;17.40;99.90;;;;;;4927508;29;20494;-71
2021/10/03 05:54:11;;;;;;;4.53;4.33;;;17.40;99.90;;;;;;4928721;29;20494;-71
2021/10/03 05:56:40;;;;;;;4.03;3.90;;;17.40;99.90;;;;;;4919362;29;20466;-71
2021/10/03 05:59:12;;;;;;;4.73;4.43;;;17.50;99.90;;;;;;4919095;29;20467;-70
2021/10/03 06:01:38;;;;;;;3.80;3.63;;;17.50;99.90;;;;;;4919705;29;20470;-71
2021/10/03 06:04:05;;;;;;;4.20;4.00;;;17.50;99.90;;;;;;4918090;29;20494;-71
2021/10/03 06:06:32;;;;;;;4.50;4.20;;;17.60;99.90;;;;;;4919438;29;20522;-71
2021/10/03 06:08:58;;;;;;;3.80;3.60;;;17.60;99.90;;;;;;4918561;29;20546;-71
2021/10/03 06:11:25;;;;;;;4.07;3.77;;;17.60;99.90;;;;;;4918912;29;20537;-71
2021/10/03 06:13:53;;;;;;;4.40;3.43;;;17.60;99.90;;;;;;4918182;29;20498;-71
2021/10/03 06:16:20;;;;;;;4.30;3.70;;;17.70;99.90;;;;;;4918951;29;20530;-71
2021/10/03 06:18:46;;;;;;;3.93;3.73;;;17.70;99.90;;;;;;4918051;29;20462;-71
2021/10/03 06:21:15;;;;;;;3.77;3.50;;;17.70;99.90;;;;;;4918840;29;20466;-71
2021/10/03 06:23:42;;;;;;;3.80;3.60;;;17.70;99.90;;;;;;4918388;29;20493;-69
2021/10/03 06:26:09;;;;;;;4.27;3.97;;;17.70;99.90;;;;;;4918225;29;20529;-71
2021/10/03 06:28:36;;;;;;;4.00;3.73;;;17.80;99.90;;;;;;4917849;29;20557;-71
2021/10/03 06:31:04;;;;;;;5.60;4.60;;;17.80;99.90;;;;;;4918596;29;20522;-71
2021/10/03 06:33:31;;;;;;;4.13;3.93;;;17.80;99.90;;;;;;4916978;29;20493;-69
2021/10/03 06:35:58;;;;;;;5.00;4.60;;;17.80;99.90;;;;;;4917901;29;21006;-68
2021/10/03 06:38:25;;;;;;;4.00;3.70;;;17.90;99.90;;;;;;4917559;29;20967;-68
2021/10/03 06:40:52;;;;;;;3.50;3.40;;;17.90;99.90;;;;;;4917727;29;20467;-69
2021/10/03 06:43:18;;;;;;;3.67;3.43;;;17.90;99.90;;;;;;4917370;29;20498;-69
2021/10/03 06:45:45;;;;;;;3.57;3.47;;;17.90;99.90;;;;;;4917583;29;20471;-68
2021/10/03 06:48:13;;;;;;;3.80;3.60;;;18.00;99.90;;;;;;4916835;29;20490;-71
2021/10/03 06:50:40;;;;;;;4.10;3.80;;;18.00;99.90;;;;;;4917872;29;20471;-69
2021/10/03 06:53:06;;;;;;;3.60;3.50;;;18.10;99.90;;;;;;4917062;29;20890;-71
2021/10/03 06:55:33;;;;;;;3.97;3.57;;;18.10;99.90;;;;;;4917685;29;20950;-71
2021/10/03 06:58:01;;;;;;;4.30;4.00;;;18.10;99.90;;;;;;4917304;29;20529;-69
2021/10/03 07:00:28;;;;;;;3.50;3.40;;;18.20;99.90;;;;;;4917062;29;20537;-69
2021/10/03 07:02:54;;;;;;;3.30;3.20;;;18.20;99.90;;;;;;4916167;29;20474;-69
2021/10/03 07:05:22;;;;;;;4.83;3.60;;;18.20;99.90;;;;;;4916821;29;20466;-68
2021/10/03 07:07:49;;;;;;;3.60;3.50;;;18.20;99.90;;;;;;4916750;29;20486;-69
2021/10/03 07:10:16;;;;;;;3.20;3.10;;;18.20;99.90;;;;;;4917131;29;20533;-69
2021/10/03 07:12:43;;;;;;;3.87;3.67;;;18.30;99.90;;;;;;4916864;29;20533;-70
2021/10/03 07:15:10;;;;;;;3.80;3.60;;;18.30;99.90;;;;;;4916929;29;20525;-69
2021/10/03 07:17:37;;;;;;;3.50;3.40;;;18.30;99.90;;;;;;4916089;29;20462;-70
2021/10/03 07:20:05;;;;;;;5.60;4.03;;;18.40;99.90;;;;;;4916281;29;20908;-68
2021/10/03 07:22:33;;;;;;;3.83;3.70;;;18.40;99.90;;;;;;4916640;29;20482;-68
2021/10/03 07:24:59;;;;;;;3.77;3.47;;;18.40;99.90;;;;;;4916821;29;20490;-68
2021/10/03 07:27:26;;;;;;;3.77;3.60;;;18.50;99.90;;;;;;4916733;29;20490;-68
2021/10/03 07:29:54;;;;;;;3.63;3.53;;;18.50;99.90;;;;;;4916623;29;20828;-68
2021/10/03 07:32:21;;;;;;;5.03;3.80;;;18.50;99.90;;;;;;4916410;29;20950;-69
2021/10/03 07:34:48;;;;;;;3.90;3.60;;;18.60;99.90;;;;;;4915275;29;20574;-69
2021/10/03 07:37:14;;;;;;;3.33;3.23;;;18.60;99.90;;;;;;4916514;29;20466;-69
2021/10/03 07:39:42;;;;;;;4.40;4.20;;;18.60;99.90;;;;;;4916462;29;20494;-69
2021/10/03 07:42:09;;;;;;;3.83;3.60;;;18.60;99.90;;;;;;4916562;29;20495;-69
2021/10/03 07:44:36;;;;;;;3.80;3.60;;;18.60;99.90;;;;;;4916251;29;20549;-70
2021/10/03 07:47:02;;;;;;;3.43;3.33;;;18.60;99.90;;;;;;4916393;29;20479;-69
2021/10/03 07:49:29;;;;;;;4.30;3.90;;;18.70;99.90;;;;;;4915518;29;20494;-69
2021/10/03 07:51:56;;;;;;;4.03;3.83;;;18.70;99.90;;;;;;4916361;29;20983;-69
2021/10/03 07:54:23;;;;;;;3.50;3.40;;;18.70;99.90;;;;;;4916159;29;20549;-69
2021/10/03 07:56:51;;;;;;;3.33;3.23;;;18.70;99.90;;;;;;4916462;29;20951;-68
2021/10/03 07:59:18;;;;;;;3.57;3.37;;;18.70;99.90;;;;;;4916170;29;20869;-68
2021/10/03 08:01:44;;;;;;;4.00;3.70;;;18.80;99.90;;;;;;4916378;29;20470;-68
2021/10/03 08:04:11;;;;;;;3.60;3.50;;;18.80;99.90;;;;;;4914883;29;20863;-68
2021/10/03 08:06:37;;;;;;;4.17;3.87;;;18.80;99.90;;;;;;4916428;29;20810;-68
2021/10/03 08:09:04;;;;;;;3.80;3.70;;;18.80;99.90;;;;;;4915911;29;21112;-69
2021/10/03 08:11:31;;;;;;;5.20;3.77;;;18.90;99.90;;;;;;4916449;29;20552;-70
2021/10/03 08:13:59;;;;;;;3.83;3.63;;;18.90;99.90;;;;;;4915876;29;20553;-71
2021/10/03 08:16:25;;;;;;;4.80;4.20;;;18.90;99.90;;;;;;4916115;29;20470;-70
2021/10/03 08:18:57;;;;;;;3.20;3.03;;;18.80;99.90;;;;;;4915188;29;21042;-71
2021/10/03 08:21:24;;;;;;;5.37;4.87;;;18.80;99.90;;;;;;4916439;29;20565;-71
2021/10/03 08:23:51;;;;;;;4.47;4.00;;;18.80;99.90;;;;;;4916103;29;20553;-70
2021/10/03 08:26:18;;;;;;;4.30;3.93;;;18.70;99.90;;;;;;4916393;29;20566;-70
2021/10/03 08:28:45;;;;;;;4.37;4.17;;;18.70;99.90;;;;;;4917042;29;20490;-70
2021/10/03 08:31:13;;;;;;;4.20;4.00;;;18.70;99.90;;;;;;4919666;29;20466;-69
2021/10/03 08:33:39;;;;;;;3.83;3.57;;;18.70;99.90;;;;;;4919233;29;20649;-68
2021/10/03 08:36:06;;;;;;;4.53;4.23;;;18.70;99.90;;;;;;4919335;29;20510;-67
2021/10/03 08:38:33;;;;;;;4.30;4.10;;;18.70;99.90;;;;;;4900794;29;20463;-68
2021/10/03 08:41:01;;;;;;;4.30;3.20;;;18.70;99.90;;;;;;4907105;29;20521;-68
2021/10/03 08:43:28;;;;;;;4.33;3.93;;;18.80;99.90;;;;;;4919321;29;21462;-68
2021/10/03 08:45:54;;;;;;;4.83;3.60;;;18.80;99.90;;;;;;4919696;29;20474;-68
2021/10/03 08:48:23;;;;;;;3.80;3.60;;;18.90;99.90;;;;;;4918936;29;20485;-68
2021/10/03 08:50:49;;;;;;;3.73;3.53;;;19.00;99.90;;;;;;4919941;29;20882;-68
2021/10/03 08:53:17;;;;;;;6.67;3.90;;;19.00;99.90;;;;;;4919067;29;20497;-68
2021/10/03 08:55:45;;;;;;;3.63;3.53;;;19.10;99.90;;;;;;4919472;29;20470;-68
2021/10/03 08:58:12;;;;;;;3.80;3.60;;;19.10;99.90;;;;;;4919052;29;20474;-69
2021/10/03 09:00:45;;;;;;;3.80;3.60;;;19.20;99.90;;;;;;4919462;29;20462;-68
2021/10/03 09:03:13;;;;;;;3.50;3.43;;;19.30;99.90;;;;;;4918484;29;20875;-69
2021/10/03 09:05:47;;;;;;;4.50;4.30;;;19.30;99.90;;;;;;4918627;29;20474;-68
2021/10/03 09:08:15;;;;;;;3.90;3.60;;;19.40;99.90;;;;;;4919670;29;20486;-68
2021/10/03 09:10:57;;;;;;;4.33;4.13;;;19.30;99.90;;;;;;4914848;29;20456;-69
2021/10/03 09:13:43;;;;;;;3.40;3.30;;;19.30;99.90;;;;;;4911323;29;21020;-68
2021/10/03 09:16:12;;;;;;;3.73;3.43;;;19.20;99.90;;;;;;4918046;29;20473;-68
2021/10/03 09:18:43;;;;;;;4.37;3.97;;;19.20;99.90;;;;;;4899844;29;20467;-71
2021/10/03 09:21:14;;;;;;;3.70;3.60;;;19.10;99.90;;;;;;4911392;29;20470;-72
2021/10/03 09:23:41;;;;;;;4.07;3.87;;;19.10;99.90;;;;;;4919016;29;20577;-72
2021/10/03 09:26:14;;;;;;;4.00;3.80;;;19.10;99.90;;;;;;4919366;29;20498;-72
2021/10/03 09:28:41;;;;;;;4.20;4.00;;;19.10;99.90;;;;;;4903089;29;20581;-72
2021/10/03 09:31:10;;;;;;;4.57;4.27;;;19.10;99.90;;;;;;4904115;29;20494;-72
2021/10/03 09:33:46;;;;;;;4.03;3.83;;;19.10;99.90;;;;;;4918922;29;20486;-71
2021/10/03 09:36:15;;;;;;;3.53;3.43;;;19.00;99.90;;;;;;4918306;29;20462;-72
2021/10/03 09:38:45;;;;;;;4.13;3.93;;;18.90;99.90;;;;;;4918158;29;20454;-71
2021/10/03 09:41:12;;;;;;;3.90;3.80;;;18.90;99.90;;;;;;4914768;29;20462;-72
2021/10/03 09:43:41;;;;;;;3.53;3.43;;;18.90;99.90;;;;;;4918477;29;20518;-71
2021/10/03 09:46:08;;;;;;;3.90;3.60;;;18.90;99.90;;;;;;4918492;29;20458;-71
2021/10/03 09:48:49;;;;;;;4.07;3.70;;;18.80;99.90;;;;;;4917355;29;20494;-72
2021/10/03 09:51:18;;;;;;;3.83;3.60;;;18.80;99.90;;;;;;4917773;29;20466;-72
2021/10/03 09:53:46;;;;;;;3.80;3.70;;;18.90;99.90;;;;;;4917720;29;20557;-72
2021/10/03 09:56:13;;;;;;;4.07;3.87;;;18.90;99.90;;;;;;4918288;29;20538;-72
2021/10/03 09:58:41;;;;;;;3.70;3.60;;;19.00;99.90;;;;;;4918631;29;20557;-72
2021/10/03 10:01:08;;;;;;;3.80;3.60;;;19.00;99.90;;;;;;4918542;29;20542;-72
2021/10/03 10:03:37;;;;;;;3.50;3.40;;;19.00;99.90;;;;;;4917307;29;20632;-73
2021/10/03 10:06:04;;;;;;;3.47;3.37;;;19.00;99.90;;;;;;4918616;29;20553;-73
2021/10/03 10:08:33;;;;;;;4.13;3.83;;;19.10;99.90;;;;;;4918095;29;20490;-73
2021/10/03 10:11:05;;;;;;;3.57;3.47;;;19.20;99.90;;;;;;4918199;29;20467;-73
2021/10/03 10:13:34;;;;;;;3.17;3.03;;;19.30;99.90;;;;;;4917841;29;20493;-73
2021/10/03 10:16:33;;;;;;;3.60;3.40;;;19.40;99.90;;;;;;4918616;29;20552;-73
2021/10/03 10:19:33;;;;;;;3.33;3.23;;;19.60;99.90;;;;;;4917114;29;20474;-73
2021/10/03 10:22:36;;;;;;;3.77;3.57;;;19.60;99.90;;;;;;4917780;29;20463;-72
2021/10/03 10:25:11;;;;;;;3.50;3.30;;;19.70;99.90;;;;;;4917498;29;21073;-73
2021/10/03 10:28:00;;;;;;;3.33;3.13;;;19.70;99.90;;;;;;4917713;29;20886;-72
2021/10/03 10:30:28;;;;;;;3.63;3.37;;;19.80;99.90;;;;;;4917887;29;20463;-73
2021/10/03 10:33:04;;;;;;;3.87;3.67;;;19.80;99.90;;;;;;4916851;29;20877;-73
2021/10/03 10:35:32;;;;;;;3.33;3.23;;;19.90;99.90;;;;;;4917352;29;20518;-73
2021/10/03 10:38:28;;;;;;;3.33;3.07;;;19.90;99.90;;;;;;4917798;29;20533;-72
2021/10/03 10:40:56;;;;;;;3.63;3.47;;;19.90;99.90;;;;;;4877915;29;20894;-73
2021/10/03 10:43:47;;;;;;;3.70;3.43;;;20.00;99.90;;;;;;4907541;29;20550;-73
2021/10/03 10:46:46;;;;;;;3.80;3.63;;;20.00;99.90;;;;;;4917652;29;20466;-72
2021/10/03 10:49:29;;;;;;;3.93;3.63;;;20.20;99.90;;;;;;4916447;29;20832;-73
2021/10/03 10:52:36;;;;;;;3.50;3.30;;;20.20;99.90;;;;;;4916224;29;20877;-73
2021/10/03 10:55:22;;;;;;;3.63;3.43;;;20.30;99.90;;;;;;4916678;29;20493;-69
2021/10/03 10:58:13;;;;;;;3.13;3.03;;;20.40;99.90;;;;;;4916832;29;20466;-69
2021/10/03 11:01:08;;;;;;;3.57;3.47;;;20.50;99.90;;;;;;4911814;29;20478;-69
2021/10/03 11:04:10;;;;;;;3.60;3.50;;;20.50;99.90;;;;;;4911084;29;21003;-69
2021/10/03 11:07:02;;;;;;;3.57;3.47;;;20.50;99.90;;;;;;4916870;29;20580;-69
2021/10/03 11:09:31;;;;;;;3.50;3.30;;;20.60;99.90;;;;;;4916579;29;20538;-69
2021/10/03 11:12:04;;;;;;;3.37;3.27;;;20.70;99.90;;;;;;4917039;29;20489;-69
2021/10/03 11:14:33;;;;;;;3.70;3.47;;;20.70;99.90;;;;;;4916627;29;20582;-69
2021/10/03 11:17:01;;;;;;;3.60;3.50;;;20.70;99.90;;;;;;4916874;29;20518;-69
2021/10/03 11:19:43;;;;;;;3.67;3.50;;;20.70;99.90;;;;;;4916027;29;20534;-69
2021/10/03 11:22:13;;;;;;;4.40;4.17;;;20.80;99.90;;;;;;4916425;29;20939;-69
2021/10/03 11:24:42;;;;;;;3.43;3.33;;;20.80;99.90;;;;;;4916627;29;20538;-70
2021/10/03 11:27:11;;;;;;;3.57;3.40;;;21.00;99.90;;;;;;4917309;29;20803;-69
2021/10/03 11:29:40;;;;;;;3.73;3.50;;;21.10;99.90;;;;;;4916598;29;20896;-69
2021/10/03 11:32:08;;;;;;;3.30;3.20;;;21.20;99.90;;;;;;4916778;29;20470;-69
2021/10/03 11:34:37;;;;;;;4.17;3.80;;;21.30;99.90;;;;;;4915622;29;20554;-69
2021/10/03 11:37:05;;;;;;;3.37;3.27;;;21.20;99.90;;;;;;4916895;29;20474;-69
2021/10/03 11:39:45;;;;;;;4.30;4.13;;;21.30;99.90;;;;;;4916444;29;20474;-69
2021/10/03 11:42:15;;;;;;;3.83;3.73;;;21.30;99.90;;;;;;4916382;29;20998;-69
2021/10/03 11:44:43;;;;;;;3.27;3.17;;;21.40;99.90;;;;;;4916435;29;20498;-69
2021/10/03 11:47:13;;;;;;;3.63;3.43;;;21.50;99.90;;;;;;4916726;29;20529;-70
2021/10/03 11:49:42;;;;;;;6.03;3.50;;;21.60;99.90;;;;;;4915554;29;21002;-73
2021/10/03 11:52:13;;;;;;;3.70;3.60;;;21.60;99.90;;;;;;4916616;29;20470;-73
2021/10/03 11:54:46;;;;;;;3.53;3.33;;;21.70;99.90;;;;;;4916030;29;20573;-71
2021/10/03 11:57:30;;;;;;;4.43;4.13;;;21.80;99.90;;;;;;4916423;29;20476;-72
2021/10/03 12:00:11;;;;;;;3.73;3.63;;;21.80;99.90;;;;;;4916268;29;20525;-72
2021/10/03 12:02:39;;;;;;;3.30;3.20;;;21.80;99.90;;;;;;4916345;29;20521;-73
2021/10/03 12:05:08;;;;;;;3.73;3.63;;;21.80;99.90;;;;;;4915027;29;20467;-72
2021/10/03 12:07:35;;;;;;;4.20;3.60;;;21.80;99.90;;;;;;4916471;29;20525;-72
2021/10/03 12:10:06;;;;;;;3.27;3.17;;;21.80;99.90;;;;;;4916439;29;20577;-73
2021/10/03 12:12:47;;;;;;;5.17;3.90;;;21.80;99.90;;;;;;4916273;29;20474;-73
2021/10/03 12:15:34;;;;;;;3.30;3.10;;;21.80;99.90;;;;;;4916000;29;20470;-74
2021/10/03 12:18:01;;;;;;;3.50;3.30;;;21.70;99.90;;;;;;4915720;29;20474;-72
2021/10/03 12:20:49;;;;;;;2.90;2.80;;;21.70;99.90;;;;;;4915151;29;20959;-73
2021/10/03 12:23:18;;;;;;;3.43;3.33;;;21.60;99.90;;;;;;4915749;29;20494;-72
2021/10/03 12:25:45;;;;;;;3.13;3.03;;;21.60;99.90;;;;;;4916083;29;20569;-72
2021/10/03 12:28:12;;;;;;;3.70;3.50;;;21.60;99.90;;;;;;4916187;29;20522;-72
2021/10/03 12:30:48;;;;;;;3.47;3.37;;;21.60;99.90;;;;;;4915660;29;20553;-70
2021/10/03 12:33:15;;;;;;;3.23;3.00;;;21.50;99.90;;;;;;4914569;29;20490;-69
2021/10/03 12:35:58;;;;;;;3.80;3.70;;;21.50;99.90;;;;;;4915891;29;20494;-70
2021/10/03 12:38:25;;;;;;;3.70;3.30;;;21.50;99.90;;;;;;4916987;29;20476;-69
2021/10/03 12:40:51;;;;;;;3.10;3.00;;;21.40;99.90;;;;;;4916946;29;20470;-68
2021/10/03 12:43:18;;;;;;;3.87;3.53;;;21.40;99.90;;;;;;4916681;29;20823;-68
2021/10/03 12:45:46;;;;;;;3.53;3.37;;;21.30;99.90;;;;;;4926292;29;20462;-67
2021/10/03 12:48:14;;;;;;;4.20;3.90;;;21.30;99.90;;;;;;4926576;29;20477;-69
2021/10/03 12:50:40;;;;;;;3.40;3.30;;;21.20;99.90;;;;;;4932315;29;20505;-68
2021/10/03 12:53:07;;;;;;;3.57;3.47;;;21.20;99.90;;;;;;4933833;29;20971;-68
2021/10/03 12:55:34;;;;;;;4.00;3.80;;;21.20;99.90;;;;;;4931502;29;20498;-68
2021/10/03 12:58:01;;;;;;;3.97;3.77;;;21.20;99.90;;;;;;4916330;29;20541;-68
2021/10/03 13:00:27;;;;;;;4.03;3.80;;;21.20;99.90;;;;;;4916040;29;20462;-68
2021/10/03 13:02:56;;;;;;;5.37;4.97;;;21.10;99.90;;;;;;4923698;29;20522;-69